createdAt,value
2017-12-11T00:00:16.726Z,832.55
2017-12-11T00:01:16.595Z,832.54
2017-12-11T00:02:16.467Z,832.48
2017-12-11T00:03:16.337Z,832.38
2017-12-11T00:04:16.204Z,832.18
2017-12-11T00:05:16.076Z,832.10
2017-12-11T00:06:15.945Z,832.12
2017-12-11T00:07:15.813Z,832.13
2017-12-11T00:08:15.683Z,832.20
2017-12-11T00:09:15.551Z,832.21
2017-12-11T00:10:15.423Z,832.19
2017-12-11T00:11:15.294Z,832.29
2017-12-11T00:12:15.162Z,832.30
2017-12-11T00:13:15.031Z,832.32
2017-12-11T00:14:14.923Z,832.36
2017-12-11T00:15:14.772Z,832.41
2017-12-11T00:16:14.638Z,832.33
2017-12-11T00:17:14.508Z,832.38
2017-12-11T00:18:14.377Z,832.53
2017-12-11T00:19:14.250Z,832.58
2017-12-11T00:20:14.118Z,832.64
2017-12-11T00:21:13.988Z,832.76
2017-12-11T00:22:13.855Z,832.71
2017-12-11T00:23:13.726Z,832.64
2017-12-11T00:24:13.596Z,832.62
2017-12-11T00:25:13.465Z,832.71
2017-12-11T00:26:13.333Z,832.74
2017-12-11T00:27:13.207Z,832.76
2017-12-11T00:28:13.075Z,832.85
2017-12-11T00:29:12.946Z,832.96
2017-12-11T00:30:12.814Z,832.97
2017-12-11T00:31:12.726Z,833.05
2017-12-11T00:32:12.556Z,833.11
2017-12-11T00:33:12.423Z,833.04
2017-12-11T00:34:12.297Z,832.96
2017-12-11T00:35:12.162Z,833.01
2017-12-11T00:36:12.034Z,833.00
2017-12-11T00:37:11.905Z,832.89
2017-12-11T00:38:11.773Z,832.88
2017-12-11T00:39:11.643Z,832.88
2017-12-11T00:40:11.513Z,832.89
2017-12-11T00:41:11.382Z,832.84
2017-12-11T00:42:11.253Z,832.78
2017-12-11T00:43:11.121Z,832.78
2017-12-11T00:44:10.991Z,832.82
2017-12-11T00:45:10.866Z,832.81
2017-12-11T00:46:10.730Z,832.80
2017-12-11T00:47:10.601Z,832.76
2017-12-11T00:48:10.474Z,832.67
2017-12-11T00:49:10.343Z,832.57
2017-12-11T00:50:10.210Z,832.62
2017-12-11T00:51:10.081Z,832.69
2017-12-11T00:52:09.949Z,832.70
2017-12-11T00:53:09.820Z,832.65
2017-12-11T00:54:09.693Z,832.60
2017-12-11T00:55:09.558Z,832.66
2017-12-11T00:56:09.429Z,832.69
2017-12-11T00:57:09.305Z,832.66
2017-12-11T00:58:09.271Z,832.70
2017-12-11T00:59:09.040Z,832.76
2017-12-11T01:00:08.910Z,832.78
2017-12-11T01:01:08.778Z,832.78
2017-12-11T01:02:08.649Z,832.76
2017-12-11T01:03:08.519Z,832.72
2017-12-11T01:04:08.386Z,832.62
2017-12-11T01:05:08.259Z,832.58
2017-12-11T01:06:08.126Z,832.61
2017-12-11T01:07:07.993Z,832.62
2017-12-11T01:08:07.868Z,832.60
2017-12-11T01:09:07.735Z,832.65
2017-12-11T01:10:07.606Z,832.61
2017-12-11T01:11:07.474Z,832.59
2017-12-11T01:12:07.346Z,832.60
2017-12-11T01:13:07.214Z,832.44
2017-12-11T01:14:07.083Z,832.28
2017-12-11T01:15:06.954Z,832.25
2017-12-11T01:16:06.823Z,832.29
2017-12-11T01:17:06.694Z,832.37
2017-12-11T01:18:06.657Z,832.38
2017-12-11T01:19:06.432Z,832.36
2017-12-11T01:20:06.306Z,832.32
2017-12-11T01:21:06.171Z,832.27
2017-12-11T01:22:06.042Z,832.20
2017-12-11T01:23:05.912Z,832.16
2017-12-11T01:24:05.782Z,832.14
2017-12-11T01:25:05.652Z,832.32
2017-12-11T01:26:05.521Z,832.38
2017-12-11T01:27:05.387Z,832.34
2017-12-11T01:28:05.260Z,832.27
2017-12-11T01:29:05.130Z,832.26
2017-12-11T01:30:04.999Z,832.39
2017-12-11T01:31:04.869Z,832.57
2017-12-11T01:32:04.737Z,832.56
2017-12-11T01:33:04.608Z,832.51
2017-12-11T01:34:04.477Z,832.49
2017-12-11T01:35:04.347Z,832.49
2017-12-11T01:36:04.218Z,832.46
2017-12-11T01:37:04.089Z,832.38
2017-12-11T01:38:03.956Z,832.33
2017-12-11T01:39:03.826Z,832.40
2017-12-11T01:40:03.696Z,832.44
2017-12-11T01:41:03.566Z,832.40
2017-12-11T01:42:03.437Z,832.34
2017-12-11T01:43:03.304Z,832.25
2017-12-11T01:44:03.176Z,832.28
2017-12-11T01:45:03.046Z,832.34
2017-12-11T01:46:02.914Z,832.33
2017-12-11T01:47:02.788Z,832.31
2017-12-11T01:48:02.653Z,832.28
2017-12-11T01:49:02.523Z,832.20
2017-12-11T01:50:02.392Z,832.16
2017-12-11T01:51:02.264Z,832.15
2017-12-11T01:52:02.131Z,832.23
2017-12-11T01:53:02.004Z,832.31
2017-12-11T01:54:01.872Z,832.36
2017-12-11T01:55:01.740Z,832.42
2017-12-11T01:56:01.612Z,832.42
2017-12-11T01:57:01.481Z,832.46
2017-12-11T01:58:01.352Z,832.43
2017-12-11T01:59:01.233Z,832.38
2017-12-11T02:00:01.093Z,832.36
2017-12-11T02:01:00.959Z,832.27
2017-12-11T02:02:00.833Z,832.24
2017-12-11T02:03:00.700Z,832.31
2017-12-11T02:04:00.571Z,832.43
2017-12-11T02:05:00.442Z,832.32
2017-12-11T02:06:00.310Z,832.29
2017-12-11T02:07:00.182Z,832.28
2017-12-11T02:08:00.051Z,832.28
2017-12-11T02:08:59.924Z,832.26
2017-12-11T02:09:59.790Z,832.33
2017-12-11T02:10:59.660Z,832.40
2017-12-11T02:11:59.532Z,832.31
2017-12-11T02:12:59.402Z,832.21
2017-12-11T02:13:59.274Z,832.16
2017-12-11T02:14:59.139Z,832.17
2017-12-11T02:15:59.074Z,832.20
2017-12-11T02:16:58.879Z,832.22
2017-12-11T02:17:58.752Z,832.22
2017-12-11T02:18:58.620Z,832.28
2017-12-11T02:19:58.488Z,832.24
2017-12-11T02:20:58.360Z,832.18
2017-12-11T02:21:58.226Z,832.05
2017-12-11T02:22:58.174Z,832.00
2017-12-11T02:23:57.969Z,832.07
2017-12-11T02:24:57.838Z,832.07
2017-12-11T02:25:57.708Z,831.97
2017-12-11T02:26:57.578Z,831.88
2017-12-11T02:27:57.449Z,831.95
2017-12-11T02:28:57.319Z,831.97
2017-12-11T02:29:57.186Z,832.15
2017-12-11T02:30:57.058Z,832.20
2017-12-11T02:31:56.927Z,832.20
2017-12-11T02:32:56.797Z,832.21
2017-12-11T02:33:56.667Z,832.08
2017-12-11T02:34:56.538Z,832.05
2017-12-11T02:35:56.405Z,832.01
2017-12-11T02:36:56.278Z,832.04
2017-12-11T02:37:56.146Z,832.00
2017-12-11T02:38:56.016Z,832.02
2017-12-11T02:39:55.888Z,832.10
2017-12-11T02:40:55.757Z,832.33
2017-12-11T02:41:55.624Z,832.37
2017-12-11T02:42:55.495Z,832.34
2017-12-11T02:43:55.365Z,832.27
2017-12-11T02:44:55.233Z,832.20
2017-12-11T02:45:55.102Z,832.19
2017-12-11T02:46:54.979Z,832.29
2017-12-11T02:47:54.843Z,832.39
2017-12-11T02:48:54.710Z,832.49
2017-12-11T02:49:54.586Z,832.52
2017-12-11T02:50:54.456Z,832.46
2017-12-11T02:51:54.323Z,832.36
2017-12-11T02:52:54.194Z,832.35
2017-12-11T02:53:54.062Z,832.22
2017-12-11T02:54:53.935Z,832.16
2017-12-11T02:55:53.806Z,832.16
2017-12-11T02:56:53.681Z,832.22
2017-12-11T02:57:53.545Z,832.27
2017-12-11T02:58:53.412Z,832.20
2017-12-11T02:59:53.285Z,832.09
2017-12-11T03:00:53.155Z,832.03
2017-12-11T03:01:53.023Z,832.00
2017-12-11T03:02:52.893Z,831.91
2017-12-11T03:03:52.766Z,831.83
2017-12-11T03:04:52.634Z,831.80
2017-12-11T03:05:52.504Z,831.81
2017-12-11T03:06:52.377Z,831.77
2017-12-11T03:07:52.248Z,831.87
2017-12-11T03:08:52.117Z,831.94
2017-12-11T03:09:51.987Z,831.90
2017-12-11T03:10:51.856Z,831.87
2017-12-11T03:11:51.726Z,831.78
2017-12-11T03:12:51.598Z,831.76
2017-12-11T03:13:51.467Z,831.86
2017-12-11T03:14:51.337Z,831.87
2017-12-11T03:15:51.207Z,831.88
2017-12-11T03:16:51.079Z,831.87
2017-12-11T03:17:50.948Z,831.88
2017-12-11T03:18:50.820Z,831.96
2017-12-11T03:19:50.687Z,831.89
2017-12-11T03:20:50.559Z,831.77
2017-12-11T03:21:50.430Z,831.79
2017-12-11T03:22:50.299Z,831.79
2017-12-11T03:23:50.170Z,831.69
2017-12-11T03:24:50.041Z,831.72
2017-12-11T03:25:49.917Z,831.82
2017-12-11T03:26:49.781Z,831.87
2017-12-11T03:27:49.651Z,831.99
2017-12-11T03:28:49.521Z,831.98
2017-12-11T03:29:49.393Z,831.80
2017-12-11T03:30:49.263Z,831.67
2017-12-11T03:31:49.135Z,831.66
2017-12-11T03:32:49.003Z,831.75
2017-12-11T03:33:48.871Z,831.84
2017-12-11T03:34:48.743Z,831.86
2017-12-11T03:35:48.612Z,831.82
2017-12-11T03:36:48.485Z,831.76
2017-12-11T03:37:48.354Z,831.77
2017-12-11T03:38:48.222Z,831.83
2017-12-11T03:39:48.290Z,831.83
2017-12-11T03:40:47.966Z,831.74
2017-12-11T03:41:47.835Z,831.55
2017-12-11T03:42:47.705Z,831.52
2017-12-11T03:43:47.580Z,831.44
2017-12-11T03:44:47.448Z,831.50
2017-12-11T03:45:47.321Z,831.49
2017-12-11T03:46:47.189Z,831.52
2017-12-11T03:47:47.059Z,831.50
2017-12-11T03:48:46.928Z,831.53
2017-12-11T03:49:46.799Z,831.51
2017-12-11T03:50:46.670Z,831.50
2017-12-11T03:51:46.539Z,831.53
2017-12-11T03:52:46.412Z,831.60
2017-12-11T03:53:46.282Z,831.65
2017-12-11T03:54:46.155Z,831.56
2017-12-11T03:55:46.167Z,831.59
2017-12-11T03:56:45.895Z,831.58
2017-12-11T03:57:45.765Z,831.61
2017-12-11T03:58:45.634Z,831.57
2017-12-11T03:59:45.508Z,831.53
2017-12-11T04:00:45.376Z,831.58
2017-12-11T04:01:45.246Z,831.52
2017-12-11T04:02:45.116Z,831.58
2017-12-11T04:03:44.988Z,831.59
2017-12-11T04:04:44.864Z,831.57
2017-12-11T04:05:44.729Z,831.51
2017-12-11T04:06:44.602Z,831.53
2017-12-11T04:07:44.474Z,831.46
2017-12-11T04:08:44.344Z,831.50
2017-12-11T04:09:44.212Z,831.35
2017-12-11T04:10:44.085Z,831.38
2017-12-11T04:11:43.955Z,831.31
2017-12-11T04:12:43.827Z,831.26
2017-12-11T04:13:43.696Z,831.27
2017-12-11T04:14:43.570Z,831.36
2017-12-11T04:15:43.438Z,831.38
2017-12-11T04:16:43.308Z,831.40
2017-12-11T04:17:43.185Z,831.46
2017-12-11T04:18:43.051Z,831.40
2017-12-11T04:19:42.926Z,831.36
2017-12-11T04:20:42.796Z,831.27
2017-12-11T04:21:42.663Z,831.39
2017-12-11T04:22:42.536Z,831.34
2017-12-11T04:23:42.406Z,831.41
2017-12-11T04:24:42.275Z,831.46
2017-12-11T04:25:42.149Z,831.36
2017-12-11T04:26:42.019Z,831.35
2017-12-11T04:27:41.890Z,831.38
2017-12-11T04:28:41.762Z,831.31
2017-12-11T04:29:41.631Z,831.30
2017-12-11T04:30:41.506Z,831.28
2017-12-11T04:31:41.372Z,831.38
2017-12-11T04:32:41.246Z,831.47
2017-12-11T04:33:41.114Z,831.50
2017-12-11T04:34:40.985Z,831.41
2017-12-11T04:35:40.857Z,831.47
2017-12-11T04:36:40.727Z,831.36
2017-12-11T04:37:40.597Z,831.39
2017-12-11T04:38:40.470Z,831.32
2017-12-11T04:39:40.341Z,831.32
2017-12-11T04:40:40.275Z,831.35
2017-12-11T04:41:40.080Z,831.33
2017-12-11T04:42:39.954Z,831.42
2017-12-11T04:43:39.824Z,831.32
2017-12-11T04:44:39.696Z,831.32
2017-12-11T04:45:39.566Z,831.37
2017-12-11T04:46:39.437Z,831.34
2017-12-11T04:47:39.310Z,831.33
2017-12-11T04:48:39.180Z,831.24
2017-12-11T04:49:39.052Z,831.29
2017-12-11T04:50:38.921Z,831.29
2017-12-11T04:51:38.792Z,831.27
2017-12-11T04:52:38.665Z,831.10
2017-12-11T04:53:38.534Z,831.32
2017-12-11T04:54:38.406Z,831.34
2017-12-11T04:55:38.279Z,831.28
2017-12-11T04:56:38.148Z,831.20
2017-12-11T04:57:38.020Z,831.26
2017-12-11T04:58:37.889Z,831.20
2017-12-11T04:59:37.760Z,831.23
2017-12-11T05:00:37.658Z,831.15
2017-12-11T05:01:37.500Z,831.08
2017-12-11T05:02:37.374Z,830.90
2017-12-11T05:03:37.245Z,830.89
2017-12-11T05:04:37.116Z,831.07
2017-12-11T05:05:36.988Z,831.00
2017-12-11T05:06:36.859Z,830.93
2017-12-11T05:07:36.728Z,830.89
2017-12-11T05:08:36.603Z,830.84
2017-12-11T05:09:36.470Z,830.84
2017-12-11T05:10:36.341Z,830.84
2017-12-11T05:11:36.213Z,830.81
2017-12-11T05:12:36.082Z,830.76
2017-12-11T05:13:35.954Z,830.79
2017-12-11T05:14:35.826Z,830.61
2017-12-11T05:15:35.694Z,830.52
2017-12-11T05:16:35.565Z,830.44
2017-12-11T05:17:35.437Z,830.46
2017-12-11T05:18:35.309Z,830.52
2017-12-11T05:19:35.178Z,830.55
2017-12-11T05:20:35.049Z,830.44
2017-12-11T05:21:34.919Z,830.35
2017-12-11T05:22:34.789Z,830.30
2017-12-11T05:23:34.661Z,830.53
2017-12-11T05:24:34.534Z,830.47
2017-12-11T05:25:34.404Z,830.41
2017-12-11T05:26:34.275Z,830.31
2017-12-11T05:27:34.146Z,830.49
2017-12-11T05:28:34.016Z,830.36
2017-12-11T05:29:33.893Z,830.46
2017-12-11T05:30:33.756Z,830.57
2017-12-11T05:31:33.629Z,830.59
2017-12-11T05:32:33.506Z,830.49
2017-12-11T05:33:33.368Z,830.46
2017-12-11T05:34:33.240Z,830.58
2017-12-11T05:35:33.111Z,830.75
2017-12-11T05:36:32.981Z,830.74
2017-12-11T05:37:32.852Z,830.65
2017-12-11T05:38:32.725Z,830.47
2017-12-11T05:39:32.594Z,830.50
2017-12-11T05:40:32.462Z,830.56
2017-12-11T05:41:32.334Z,830.62
2017-12-11T05:42:32.207Z,830.64
2017-12-11T05:43:32.085Z,830.67
2017-12-11T05:44:31.949Z,830.66
2017-12-11T05:45:31.817Z,830.61
2017-12-11T05:46:31.687Z,830.52
2017-12-11T05:47:31.558Z,830.62
2017-12-11T05:48:31.432Z,830.63
2017-12-11T05:49:31.302Z,830.73
2017-12-11T05:50:31.174Z,830.73
2017-12-11T05:51:31.054Z,830.74
2017-12-11T05:52:30.915Z,830.77
2017-12-11T05:53:30.785Z,830.75
2017-12-11T05:54:30.654Z,830.61
2017-12-11T05:55:30.525Z,830.62
2017-12-11T05:56:30.401Z,830.77
2017-12-11T05:57:30.268Z,830.49
2017-12-11T05:58:30.136Z,830.51
2017-12-11T05:59:30.008Z,830.56
2017-12-11T06:00:29.881Z,830.62
2017-12-11T06:01:29.753Z,830.54
2017-12-11T06:02:29.620Z,830.50
2017-12-11T06:03:29.491Z,830.47
2017-12-11T06:04:29.362Z,830.49
2017-12-11T06:05:29.233Z,830.42
2017-12-11T06:06:29.102Z,830.35
2017-12-11T06:07:28.974Z,830.41
2017-12-11T06:08:28.844Z,830.36
2017-12-11T06:09:28.716Z,830.34
2017-12-11T06:10:28.588Z,830.25
2017-12-11T06:11:28.457Z,830.26
2017-12-11T06:12:28.331Z,830.29
2017-12-11T06:13:28.199Z,830.20
2017-12-11T06:14:28.070Z,830.31
2017-12-11T06:15:27.941Z,830.33
2017-12-11T06:16:27.812Z,830.27
2017-12-11T06:17:27.680Z,830.27
2017-12-11T06:18:27.551Z,830.06
2017-12-11T06:19:27.424Z,829.81
2017-12-11T06:20:27.293Z,829.97
2017-12-11T06:21:27.164Z,829.94
2017-12-11T06:22:27.035Z,829.79
2017-12-11T06:23:26.907Z,829.68
2017-12-11T06:24:26.775Z,829.83
2017-12-11T06:25:26.646Z,829.79
2017-12-11T06:26:26.519Z,829.74
2017-12-11T06:27:26.390Z,829.67
2017-12-11T06:28:26.260Z,829.64
2017-12-11T06:29:26.127Z,829.49
2017-12-11T06:30:26.002Z,829.37
2017-12-11T06:31:25.871Z,829.36
2017-12-11T06:32:25.741Z,829.42
2017-12-11T06:33:25.612Z,829.52
2017-12-11T06:34:25.485Z,829.57
2017-12-11T06:35:25.355Z,829.74
2017-12-11T06:36:25.227Z,829.90
2017-12-11T06:37:25.095Z,829.97
2017-12-11T06:38:24.966Z,829.89
2017-12-11T06:39:24.836Z,830.07
2017-12-11T06:40:24.707Z,830.01
2017-12-11T06:41:24.577Z,829.87
2017-12-11T06:42:24.448Z,829.63
2017-12-11T06:43:24.322Z,829.75
2017-12-11T06:44:24.191Z,829.86
2017-12-11T06:45:24.058Z,829.84
2017-12-11T06:46:23.930Z,829.88
2017-12-11T06:47:23.799Z,830.00
2017-12-11T06:48:23.677Z,829.97
2017-12-11T06:49:23.542Z,829.79
2017-12-11T06:50:23.412Z,829.60
2017-12-11T06:51:23.288Z,829.60
2017-12-11T06:52:23.154Z,829.67
2017-12-11T06:53:23.023Z,829.86
2017-12-11T06:54:22.900Z,829.88
2017-12-11T06:55:22.766Z,829.85
2017-12-11T06:56:22.637Z,829.91
2017-12-11T06:57:22.506Z,830.03
2017-12-11T06:58:22.378Z,829.96
2017-12-11T06:59:22.249Z,829.92
2017-12-11T07:00:22.121Z,829.79
2017-12-11T07:01:21.989Z,829.86
2017-12-11T07:02:21.861Z,829.73
2017-12-11T07:03:21.732Z,829.84
2017-12-11T07:04:21.602Z,829.93
2017-12-11T07:05:21.474Z,829.82
2017-12-11T07:06:21.342Z,829.92
2017-12-11T07:07:21.214Z,829.90
2017-12-11T07:08:21.083Z,830.06
2017-12-11T07:09:20.953Z,830.09
2017-12-11T07:10:20.829Z,829.94
2017-12-11T07:11:20.696Z,829.98
2017-12-11T07:12:20.567Z,829.69
2017-12-11T07:13:20.438Z,829.75
2017-12-11T07:14:20.306Z,829.76
2017-12-11T07:15:20.178Z,830.03
2017-12-11T07:16:20.049Z,829.99
2017-12-11T07:17:19.919Z,830.06
2017-12-11T07:18:19.790Z,830.18
2017-12-11T07:19:19.661Z,830.09
2017-12-11T07:20:19.531Z,829.92
2017-12-11T07:21:19.401Z,829.70
2017-12-11T07:22:19.270Z,829.73
2017-12-11T07:23:19.141Z,829.83
2017-12-11T07:24:19.012Z,830.07
2017-12-11T07:25:18.881Z,830.04
2017-12-11T07:26:18.750Z,829.81
2017-12-11T07:27:18.622Z,829.57
2017-12-11T07:28:18.494Z,829.86
2017-12-11T07:29:18.360Z,829.88
2017-12-11T07:30:18.232Z,829.90
2017-12-11T07:31:18.105Z,829.90
2017-12-11T07:32:17.975Z,829.87
2017-12-11T07:33:17.844Z,829.90
2017-12-11T07:34:17.716Z,829.79
2017-12-11T07:35:17.588Z,829.70
2017-12-11T07:36:17.459Z,829.85
2017-12-11T07:37:17.326Z,829.73
2017-12-11T07:38:17.199Z,829.27
2017-12-11T07:39:17.070Z,829.46
2017-12-11T07:40:16.941Z,829.57
2017-12-11T07:41:16.811Z,829.70
2017-12-11T07:42:16.680Z,829.66
2017-12-11T07:43:16.553Z,829.58
2017-12-11T07:44:16.423Z,829.56
2017-12-11T07:45:16.292Z,829.60
2017-12-11T07:46:16.167Z,829.59
2017-12-11T07:47:16.036Z,829.44
2017-12-11T07:48:15.904Z,829.45
2017-12-11T07:49:15.776Z,829.35
2017-12-11T07:50:15.655Z,829.69
2017-12-11T07:51:15.519Z,829.71
2017-12-11T07:52:15.391Z,829.54
2017-12-11T07:53:15.258Z,829.78
2017-12-11T07:54:15.129Z,829.85
2017-12-11T07:55:15.000Z,829.51
2017-12-11T07:56:14.872Z,829.67
2017-12-11T07:57:14.744Z,829.31
2017-12-11T07:58:14.615Z,829.25
2017-12-11T07:59:14.486Z,829.55
2017-12-11T08:00:14.361Z,829.76
2017-12-11T08:01:14.224Z,829.54
2017-12-11T08:02:14.099Z,829.35
2017-12-11T08:03:13.971Z,829.34
2017-12-11T08:04:13.837Z,829.19
2017-12-11T08:05:13.708Z,829.05
2017-12-11T08:06:13.580Z,829.33
2017-12-11T08:07:13.450Z,829.45
2017-12-11T08:08:13.324Z,829.29
2017-12-11T08:09:13.192Z,829.58
2017-12-11T08:10:13.064Z,829.76
2017-12-11T08:11:12.936Z,829.34
2017-12-11T08:12:12.806Z,829.29
2017-12-11T08:13:12.673Z,829.11
2017-12-11T08:14:12.547Z,829.13
2017-12-11T08:15:12.415Z,829.49
2017-12-11T08:16:12.289Z,829.69
2017-12-11T08:17:12.158Z,829.50
2017-12-11T08:18:12.031Z,829.46
2017-12-11T08:19:11.908Z,829.46
2017-12-11T08:20:11.771Z,829.61
2017-12-11T08:21:11.641Z,829.36
2017-12-11T08:22:11.514Z,829.31
2017-12-11T08:23:11.384Z,829.48
2017-12-11T08:24:11.255Z,829.50
2017-12-11T08:25:11.273Z,829.73
2017-12-11T08:26:10.992Z,829.53
2017-12-11T08:27:10.866Z,829.59
2017-12-11T08:28:10.737Z,829.47
2017-12-11T08:29:10.606Z,829.46
2017-12-11T08:30:10.478Z,829.49
2017-12-11T08:31:10.346Z,829.69
2017-12-11T08:32:10.222Z,829.76
2017-12-11T08:33:10.090Z,829.45
2017-12-11T08:34:09.963Z,829.46
2017-12-11T08:35:09.830Z,829.41
2017-12-11T08:36:09.709Z,829.49
2017-12-11T08:37:09.574Z,829.30
2017-12-11T08:38:09.446Z,829.20
2017-12-11T08:39:09.329Z,829.23
2017-12-11T08:40:09.187Z,829.13
2017-12-11T08:41:09.059Z,829.38
2017-12-11T08:42:08.929Z,829.52
2017-12-11T08:43:08.798Z,829.35
2017-12-11T08:44:08.673Z,829.59
2017-12-11T08:45:08.540Z,829.55
2017-12-11T08:46:08.412Z,829.43
2017-12-11T08:47:08.283Z,829.45
2017-12-11T08:48:08.153Z,829.29
2017-12-11T08:49:08.026Z,829.50
2017-12-11T08:50:07.894Z,829.27
2017-12-11T08:51:07.766Z,829.48
2017-12-11T08:52:07.638Z,829.33
2017-12-11T08:53:07.510Z,829.47
2017-12-11T08:54:07.382Z,829.36
2017-12-11T08:55:07.252Z,829.41
2017-12-11T08:56:07.292Z,829.31
2017-12-11T08:57:06.994Z,829.44
2017-12-11T08:58:06.863Z,829.45
2017-12-11T08:59:06.737Z,829.50
2017-12-11T09:00:06.609Z,829.49
2017-12-11T09:01:06.479Z,829.50
2017-12-11T09:02:06.351Z,829.43
2017-12-11T09:03:06.222Z,829.18
2017-12-11T09:04:06.096Z,829.22
2017-12-11T09:05:05.966Z,828.94
2017-12-11T09:06:05.838Z,829.33
2017-12-11T09:07:05.713Z,829.52
2017-12-11T09:08:05.581Z,829.57
2017-12-11T09:09:05.453Z,829.35
2017-12-11T09:10:05.325Z,829.05
2017-12-11T09:11:05.196Z,829.09
2017-12-11T09:12:05.068Z,829.04
2017-12-11T09:13:04.940Z,828.98
2017-12-11T09:14:04.809Z,829.16
2017-12-11T09:15:04.682Z,829.43
2017-12-11T09:16:04.552Z,829.31
2017-12-11T09:17:04.425Z,829.51
2017-12-11T09:18:04.295Z,829.34
2017-12-11T09:19:04.168Z,829.18
2017-12-11T09:20:04.038Z,829.33
2017-12-11T09:21:03.910Z,829.34
2017-12-11T09:22:03.780Z,829.23
2017-12-11T09:23:03.652Z,829.15
2017-12-11T09:24:03.527Z,829.22
2017-12-11T09:25:03.396Z,829.09
2017-12-11T09:26:03.270Z,829.06
2017-12-11T09:27:03.142Z,828.96
2017-12-11T09:28:03.013Z,829.00
2017-12-11T09:29:02.885Z,829.05
2017-12-11T09:30:02.759Z,829.02
2017-12-11T09:31:02.629Z,828.98
2017-12-11T09:32:02.503Z,828.94
2017-12-11T09:33:02.373Z,828.89
2017-12-11T09:34:02.243Z,829.01
2017-12-11T09:35:02.119Z,828.99
2017-12-11T09:36:01.990Z,828.92
2017-12-11T09:37:01.863Z,829.07
2017-12-11T09:38:01.735Z,829.04
2017-12-11T09:39:01.607Z,829.12
2017-12-11T09:40:01.478Z,828.93
2017-12-11T09:41:01.350Z,828.91
2017-12-11T09:42:01.226Z,829.10
2017-12-11T09:43:01.095Z,829.09
2017-12-11T09:44:00.968Z,829.30
2017-12-11T09:45:00.840Z,829.06
2017-12-11T09:46:00.713Z,829.34
2017-12-11T09:47:00.582Z,829.38
2017-12-11T09:48:00.473Z,829.29
2017-12-11T09:49:00.330Z,829.11
2017-12-11T09:50:00.202Z,828.98
2017-12-11T09:51:00.075Z,828.99
2017-12-11T09:51:59.949Z,828.78
2017-12-11T09:52:59.821Z,828.88
2017-12-11T09:53:59.691Z,828.98
2017-12-11T09:54:59.564Z,828.91
2017-12-11T09:55:59.438Z,828.87
2017-12-11T09:56:59.308Z,828.94
2017-12-11T09:57:59.182Z,828.99
2017-12-11T09:58:59.054Z,828.71
2017-12-11T09:59:58.927Z,828.62
2017-12-11T10:00:58.801Z,828.88
2017-12-11T10:01:58.699Z,828.97
2017-12-11T10:02:58.547Z,828.79
2017-12-11T10:03:58.419Z,828.82
2017-12-11T10:04:58.291Z,828.44
2017-12-11T10:05:58.164Z,828.30
2017-12-11T10:06:58.037Z,828.50
2017-12-11T10:07:57.909Z,828.41
2017-12-11T10:08:57.780Z,828.59
2017-12-11T10:09:57.654Z,828.75
2017-12-11T10:10:57.526Z,828.53
2017-12-11T10:11:57.399Z,828.00
2017-12-11T10:12:57.272Z,828.52
2017-12-11T10:13:57.147Z,828.59
2017-12-11T10:14:57.018Z,828.60
2017-12-11T10:15:56.893Z,828.60
2017-12-11T10:16:56.772Z,828.69
2017-12-11T10:17:56.639Z,828.37
2017-12-11T10:18:56.512Z,828.29
2017-12-11T10:19:56.390Z,828.36
2017-12-11T10:20:56.255Z,828.52
2017-12-11T10:21:56.127Z,828.44
2017-12-11T10:22:56.002Z,828.42
2017-12-11T10:23:55.881Z,828.24
2017-12-11T10:24:55.748Z,828.05
2017-12-11T10:25:55.620Z,828.28
2017-12-11T10:26:55.494Z,828.20
2017-12-11T10:27:55.368Z,827.94
2017-12-11T10:28:55.238Z,827.99
2017-12-11T10:29:55.111Z,828.04
2017-12-11T10:30:54.992Z,827.86
2017-12-11T10:31:54.858Z,828.00
2017-12-11T10:32:54.730Z,828.28
2017-12-11T10:33:54.603Z,828.45
2017-12-11T10:34:54.477Z,828.36
2017-12-11T10:35:54.351Z,828.36
2017-12-11T10:36:54.224Z,828.14
2017-12-11T10:37:54.096Z,828.11
2017-12-11T10:38:53.968Z,827.85
2017-12-11T10:39:53.841Z,828.11
2017-12-11T10:40:53.714Z,827.69
2017-12-11T10:41:53.589Z,828.06
2017-12-11T10:42:53.461Z,828.27
2017-12-11T10:43:53.336Z,828.09
2017-12-11T10:44:53.261Z,827.73
2017-12-11T10:45:53.110Z,828.21
2017-12-11T10:46:52.957Z,828.46
2017-12-11T10:47:52.831Z,828.13
2017-12-11T10:48:52.702Z,828.12
2017-12-11T10:49:52.574Z,828.50
2017-12-11T10:50:52.447Z,828.37
2017-12-11T10:51:52.322Z,828.37
2017-12-11T10:52:52.193Z,828.56
2017-12-11T10:53:52.072Z,828.34
2017-12-11T10:54:51.941Z,828.03
2017-12-11T10:55:51.814Z,828.54
2017-12-11T10:56:51.687Z,827.97
2017-12-11T10:57:51.559Z,828.27
2017-12-11T10:58:51.433Z,828.35
2017-12-11T10:59:51.339Z,828.63
2017-12-11T11:00:51.178Z,828.62
2017-12-11T11:01:51.050Z,828.46
2017-12-11T11:02:50.925Z,828.64
2017-12-11T11:03:50.798Z,828.67
2017-12-11T11:04:50.669Z,828.46
2017-12-11T11:05:50.546Z,828.19
2017-12-11T11:06:50.419Z,828.40
2017-12-11T11:07:50.292Z,828.71
2017-12-11T11:08:50.165Z,828.37
2017-12-11T11:09:50.040Z,828.58
2017-12-11T11:10:49.911Z,828.50
2017-12-11T11:11:49.784Z,828.48
2017-12-11T11:12:49.655Z,828.45
2017-12-11T11:13:49.530Z,828.48
2017-12-11T11:14:49.401Z,828.45
2017-12-11T11:15:49.277Z,828.54
2017-12-11T11:16:49.169Z,829.03
2017-12-11T11:17:49.025Z,828.68
2017-12-11T11:18:48.897Z,828.57
2017-12-11T11:19:48.768Z,828.34
2017-12-11T11:20:48.641Z,828.17
2017-12-11T11:21:48.516Z,828.43
2017-12-11T11:22:48.389Z,828.55
2017-12-11T11:23:48.264Z,828.32
2017-12-11T11:24:48.134Z,828.31
2017-12-11T11:25:48.011Z,828.48
2017-12-11T11:26:47.882Z,828.65
2017-12-11T11:27:47.754Z,828.62
2017-12-11T11:28:47.626Z,828.62
2017-12-11T11:29:47.500Z,828.89
2017-12-11T11:30:47.373Z,828.56
2017-12-11T11:31:47.248Z,828.90
2017-12-11T11:32:47.118Z,828.87
2017-12-11T11:33:46.995Z,828.83
2017-12-11T11:34:46.872Z,828.70
2017-12-11T11:35:46.741Z,828.87
2017-12-11T11:36:46.613Z,828.64
2017-12-11T11:37:46.487Z,828.85
2017-12-11T11:38:46.358Z,828.50
2017-12-11T11:39:46.232Z,828.89
2017-12-11T11:40:46.104Z,829.11
2017-12-11T11:41:45.979Z,829.16
2017-12-11T11:42:45.849Z,829.06
2017-12-11T11:43:45.724Z,828.75
2017-12-11T11:44:45.597Z,828.75
2017-12-11T11:45:45.469Z,828.96
2017-12-11T11:46:45.342Z,828.95
2017-12-11T11:47:45.216Z,828.94
2017-12-11T11:48:45.088Z,828.76
2017-12-11T11:49:44.963Z,828.85
2017-12-11T11:50:44.835Z,828.99
2017-12-11T11:51:44.705Z,828.94
2017-12-11T11:52:44.580Z,829.19
2017-12-11T11:53:44.451Z,828.86
2017-12-11T11:54:44.327Z,829.07
2017-12-11T11:55:44.199Z,828.73
2017-12-11T11:56:44.073Z,828.97
2017-12-11T11:57:43.944Z,829.03
2017-12-11T11:58:43.817Z,828.82
2017-12-11T11:59:43.693Z,828.86
2017-12-11T12:00:43.563Z,828.92
2017-12-11T12:01:43.434Z,829.09
2017-12-11T12:02:43.309Z,829.12
2017-12-11T12:03:43.225Z,829.00
2017-12-11T12:04:43.053Z,828.86
2017-12-11T12:05:42.926Z,829.22
2017-12-11T12:06:42.798Z,828.89
2017-12-11T12:07:42.672Z,829.14
2017-12-11T12:08:42.544Z,828.93
2017-12-11T12:09:42.420Z,829.05
2017-12-11T12:10:42.288Z,828.94
2017-12-11T12:11:42.160Z,829.02
2017-12-11T12:12:42.035Z,829.09
2017-12-11T12:13:41.910Z,829.03
2017-12-11T12:14:41.779Z,828.76
2017-12-11T12:15:41.651Z,828.90
2017-12-11T12:16:41.523Z,829.02
2017-12-11T12:17:41.397Z,829.30
2017-12-11T12:18:41.268Z,829.03
2017-12-11T12:19:41.141Z,828.91
2017-12-11T12:20:41.014Z,829.09
2017-12-11T12:21:40.887Z,829.06
2017-12-11T12:22:40.759Z,828.97
2017-12-11T12:23:40.632Z,829.52
2017-12-11T12:24:40.516Z,829.32
2017-12-11T12:25:40.378Z,829.28
2017-12-11T12:26:40.248Z,829.13